createdAt,value
2018-05-24T00:02:08.906Z,19.50
2018-05-24T00:04:36.504Z,19.50
2018-05-24T00:07:04.174Z,19.40
2018-05-24T00:09:31.657Z,19.40
2018-05-24T00:12:00.039Z,19.40
2018-05-24T00:14:27.614Z,19.40
2018-05-24T00:16:56.003Z,19.30
2018-05-24T00:19:24.360Z,19.30
2018-05-24T00:21:51.949Z,19.30
2018-05-24T00:24:19.938Z,19.30
2018-05-24T00:26:47.544Z,19.20
2018-05-24T00:29:15.049Z,19.20
2018-05-24T00:31:42.588Z,19.20
2018-05-24T00:34:10.250Z,19.20
2018-05-24T00:36:37.812Z,19.10
2018-05-24T00:39:06.325Z,19.00
2018-05-24T00:41:33.792Z,19.00
2018-05-24T00:44:01.301Z,19.00
2018-05-24T00:46:28.804Z,19.00
2018-05-24T00:48:56.320Z,19.00
2018-05-24T00:51:23.795Z,18.90
2018-05-24T00:53:51.448Z,18.90
2018-05-24T00:56:18.950Z,18.90
2018-05-24T00:58:46.434Z,18.90
2018-05-24T01:01:14.028Z,18.90
2018-05-24T01:03:41.519Z,18.80
2018-05-24T01:06:09.836Z,18.80
2018-05-24T01:08:37.318Z,18.80
2018-05-24T01:11:04.936Z,18.80
2018-05-24T01:13:32.506Z,18.80
2018-05-24T01:16:00.074Z,18.70
2018-05-24T01:18:28.576Z,18.70
2018-05-24T01:20:56.995Z,18.60
2018-05-24T01:23:24.483Z,18.60
2018-05-24T01:25:51.998Z,18.60
2018-05-24T01:28:19.672Z,18.60
2018-05-24T01:30:47.279Z,18.60
2018-05-24T01:33:14.882Z,18.60
2018-05-24T01:35:42.618Z,18.50
2018-05-24T01:38:10.152Z,18.50
2018-05-24T01:40:37.742Z,18.50
2018-05-24T01:43:06.014Z,18.30
2018-05-24T01:45:33.535Z,18.30
2018-05-24T01:48:01.073Z,18.30
2018-05-24T01:50:29.355Z,18.20
2018-05-24T01:52:57.673Z,18.20
2018-05-24T01:55:25.156Z,18.20
2018-05-24T01:57:52.679Z,18.20
2018-05-24T02:00:20.216Z,18.10
2018-05-24T02:02:47.761Z,18.10
2018-05-24T02:05:15.293Z,18.10
2018-05-24T02:07:42.940Z,18.10
2018-05-24T02:10:10.461Z,18.10
2018-05-24T02:12:38.008Z,18.10
2018-05-24T02:15:05.554Z,18.10
2018-05-24T02:17:33.155Z,18.00
2018-05-24T02:20:00.842Z,18.00
2018-05-24T02:22:29.122Z,18.00
2018-05-24T02:24:56.780Z,18.00
2018-05-24T02:27:24.304Z,17.90
2018-05-24T02:29:51.820Z,17.90
2018-05-24T02:32:19.386Z,17.90
2018-05-24T02:34:46.971Z,17.90
2018-05-24T02:37:15.264Z,17.80
2018-05-24T02:39:43.577Z,17.80
2018-05-24T02:42:11.186Z,17.80
2018-05-24T02:44:38.752Z,17.70
2018-05-24T02:47:06.400Z,17.70
2018-05-24T02:49:33.891Z,17.70
2018-05-24T02:52:01.473Z,17.70
2018-05-24T02:54:28.953Z,17.70
2018-05-24T02:56:56.469Z,17.70
2018-05-24T02:59:24.724Z,17.70
2018-05-24T03:01:52.252Z,17.60
2018-05-24T03:04:20.605Z,17.70
2018-05-24T03:06:48.883Z,17.60
2018-05-24T03:09:16.392Z,17.60
2018-05-24T03:11:43.883Z,17.60
2018-05-24T03:14:11.529Z,17.60
2018-05-24T03:16:39.048Z,17.60
2018-05-24T03:19:06.575Z,17.50
2018-05-24T03:21:34.193Z,17.50
2018-05-24T03:24:01.856Z,17.50
2018-05-24T03:26:29.466Z,17.50
2018-05-24T03:28:57.729Z,17.50
2018-05-24T03:31:25.367Z,17.50
2018-05-24T03:33:52.899Z,17.50
2018-05-24T03:36:21.240Z,17.50
2018-05-24T03:38:48.771Z,17.40
2018-05-24T03:41:17.229Z,17.40
2018-05-24T03:43:44.953Z,17.40
2018-05-24T03:46:12.813Z,17.40
2018-05-24T03:48:41.163Z,17.40
2018-05-24T03:51:08.689Z,17.40
2018-05-24T03:53:36.231Z,17.40
2018-05-24T03:56:03.713Z,17.40
2018-05-24T03:58:31.947Z,17.30
2018-05-24T04:01:11.550Z,17.30
2018-05-24T04:03:49.720Z,17.30
2018-05-24T04:06:17.252Z,17.30
2018-05-24T04:08:45.525Z,17.30
2018-05-24T04:11:13.961Z,17.30
2018-05-24T04:13:41.553Z,17.30
2018-05-24T04:16:09.057Z,17.30
2018-05-24T04:18:36.740Z,17.30
2018-05-24T04:21:05.035Z,17.40
2018-05-24T04:23:33.341Z,17.40
2018-05-24T04:26:00.871Z,17.40
2018-05-24T04:28:29.183Z,17.40
2018-05-24T04:30:57.464Z,17.40
2018-05-24T04:33:24.964Z,17.40
2018-05-24T04:35:52.530Z,17.40
2018-05-24T04:38:20.078Z,17.40
2018-05-24T04:40:48.353Z,17.40
2018-05-24T04:43:15.945Z,17.40
2018-05-24T04:45:44.288Z,17.50
2018-05-24T04:48:12.130Z,17.50
2018-05-24T04:50:39.673Z,17.50
2018-05-24T04:53:07.544Z,17.50
2018-05-24T04:55:35.070Z,17.50
2018-05-24T04:58:02.605Z,17.60
2018-05-24T05:00:30.905Z,17.60
2018-05-24T05:02:58.440Z,17.50
2018-05-24T05:05:26.769Z,17.70
2018-05-24T05:07:54.320Z,17.60
2018-05-24T05:10:22.581Z,17.70
2018-05-24T05:12:50.189Z,17.70
2018-05-24T05:15:18.463Z,17.80
2018-05-24T05:17:46.055Z,17.80
2018-05-24T05:20:14.356Z,17.80
2018-05-24T05:22:41.908Z,17.80
2018-05-24T05:25:10.251Z,17.70
2018-05-24T05:27:37.758Z,17.70
2018-05-24T05:30:06.005Z,17.70
2018-05-24T05:32:33.648Z,17.70
2018-05-24T05:35:01.199Z,17.70
2018-05-24T05:37:29.534Z,17.80
2018-05-24T05:39:57.036Z,17.80
2018-05-24T05:42:24.627Z,17.80
2018-05-24T05:44:52.982Z,17.90
2018-05-24T05:47:20.476Z,17.90
2018-05-24T05:49:48.045Z,17.90
2018-05-24T05:52:15.719Z,17.90
2018-05-24T05:54:43.195Z,17.90
2018-05-24T05:57:11.575Z,17.90
2018-05-24T05:59:39.148Z,17.90
2018-05-24T06:02:06.788Z,17.90
2018-05-24T06:04:34.272Z,17.90
2018-05-24T06:07:01.783Z,17.90
2018-05-24T06:09:30.032Z,18.00
2018-05-24T06:11:57.765Z,18.00
2018-05-24T06:14:25.310Z,18.00
2018-05-24T06:16:53.642Z,18.80
2018-05-24T06:19:21.188Z,18.80
2018-05-24T06:21:49.482Z,19.40
2018-05-24T06:24:17.043Z,19.40
2018-05-24T06:26:45.317Z,19.70
2018-05-24T06:29:12.913Z,19.70
2018-05-24T06:31:40.465Z,19.60
2018-05-24T06:34:08.704Z,19.40
2018-05-24T06:36:36.443Z,19.40
2018-05-24T06:39:03.948Z,19.40
2018-05-24T06:41:31.476Z,19.20
2018-05-24T06:43:59.724Z,19.10
2018-05-24T06:46:27.295Z,19.10
2018-05-24T06:48:54.755Z,19.20
2018-05-24T06:51:22.328Z,19.20
2018-05-24T06:53:50.141Z,19.30
2018-05-24T06:56:17.590Z,19.40
2018-05-24T06:58:45.108Z,19.50
2018-05-24T07:01:12.710Z,19.60
2018-05-24T07:03:40.353Z,19.80
2018-05-24T07:06:07.830Z,20.00
2018-05-24T07:08:35.362Z,20.10
2018-05-24T07:11:03.179Z,20.10
2018-05-24T07:13:30.733Z,20.10
2018-05-24T07:15:59.111Z,20.20
2018-05-24T07:18:27.364Z,20.20
2018-05-24T07:20:54.875Z,20.20
2018-05-24T07:23:23.186Z,20.20
2018-05-24T07:25:50.688Z,20.20
2018-05-24T07:28:18.281Z,20.30
2018-05-24T07:30:45.885Z,20.30
2018-05-24T07:33:13.493Z,20.30
2018-05-24T07:35:41.677Z,20.30
2018-05-24T07:38:09.302Z,20.30
2018-05-24T07:40:37.570Z,20.40
2018-05-24T07:43:05.213Z,20.40
2018-05-24T07:45:32.699Z,20.50
2018-05-24T07:48:00.235Z,20.50
2018-05-24T07:50:27.712Z,20.50
2018-05-24T07:52:55.399Z,20.50
2018-05-24T07:55:23.018Z,20.60
2018-05-24T07:57:50.621Z,20.70
2018-05-24T08:00:18.189Z,20.70
2018-05-24T08:02:45.733Z,20.70
2018-05-24T08:05:13.269Z,20.70
2018-05-24T08:07:40.745Z,20.80
2018-05-24T08:10:08.262Z,20.80
2018-05-24T08:12:35.859Z,20.80
2018-05-24T08:15:03.443Z,20.90
2018-05-24T08:17:31.159Z,21.00
2018-05-24T08:19:58.738Z,21.00
2018-05-24T08:22:27.085Z,21.20
2018-05-24T08:24:54.630Z,21.20
2018-05-24T08:27:22.171Z,21.20
2018-05-24T08:29:50.464Z,21.40
2018-05-24T08:32:18.725Z,21.50
2018-05-24T08:34:46.252Z,21.50
2018-05-24T08:37:13.746Z,21.60
2018-05-24T08:39:41.341Z,21.70
2018-05-24T08:42:08.824Z,21.80
2018-05-24T08:44:36.356Z,21.80
2018-05-24T08:47:03.904Z,21.80
2018-05-24T08:49:31.405Z,21.90
2018-05-24T08:51:58.899Z,22.00
2018-05-24T08:54:26.412Z,22.10
2018-05-24T08:56:53.899Z,22.10
2018-05-24T08:59:21.583Z,22.20
2018-05-24T09:01:49.223Z,22.30
2018-05-24T09:04:16.787Z,22.40
2018-05-24T09:06:44.343Z,22.40
2018-05-24T09:09:12.653Z,22.60
2018-05-24T09:11:40.174Z,22.60
2018-05-24T09:14:07.663Z,22.70
2018-05-24T09:16:35.253Z,22.80
2018-05-24T09:19:03.754Z,23.10
2018-05-24T09:21:31.294Z,23.00
2018-05-24T09:23:58.854Z,23.20
2018-05-24T09:26:26.351Z,23.40
2018-05-24T09:28:54.720Z,23.50
2018-05-24T09:31:22.553Z,23.50
2018-05-24T09:33:50.141Z,23.60
2018-05-24T09:36:17.660Z,23.70
2018-05-24T09:38:46.074Z,23.90
2018-05-24T09:41:13.640Z,23.80
2018-05-24T09:43:41.260Z,24.00
2018-05-24T09:46:08.988Z,24.00
2018-05-24T09:48:36.470Z,24.00
2018-05-24T09:51:04.013Z,24.10
2018-05-24T09:53:32.472Z,24.40
2018-05-24T09:55:59.987Z,24.30
2018-05-24T09:58:28.293Z,25.10
2018-05-24T10:00:55.835Z,25.00
2018-05-24T10:03:24.247Z,25.50
2018-05-24T10:05:51.795Z,25.50
2018-05-24T10:08:20.069Z,25.40
2018-05-24T10:10:47.548Z,25.40
2018-05-24T10:13:15.126Z,25.30
2018-05-24T10:15:43.508Z,25.20
2018-05-24T10:18:11.087Z,25.20
2018-05-24T10:20:39.488Z,25.40
2018-05-24T10:23:07.783Z,25.70
2018-05-24T10:25:35.453Z,25.70
2018-05-24T10:28:03.757Z,26.40
2018-05-24T10:30:31.329Z,26.40
2018-05-24T10:32:58.804Z,26.50
2018-05-24T10:35:26.335Z,26.60
2018-05-24T10:37:54.038Z,26.60
2018-05-24T10:40:21.563Z,26.70
2018-05-24T10:42:49.265Z,27.00
2018-05-24T10:45:17.735Z,27.40
2018-05-24T10:47:45.203Z,27.40
2018-05-24T10:50:12.720Z,27.50
2018-05-24T10:52:40.241Z,27.50
2018-05-24T10:55:07.866Z,27.50
2018-05-24T10:57:35.339Z,27.50
2018-05-24T11:00:03.038Z,27.40
2018-05-24T11:02:30.593Z,27.60
2018-05-24T11:04:58.090Z,28.10
2018-05-24T11:07:25.601Z,28.40
2018-05-24T11:09:53.845Z,28.50
2018-05-24T11:12:21.641Z,28.40
2018-05-24T11:14:49.107Z,28.80
2018-05-24T11:17:16.725Z,29.00
2018-05-24T11:19:44.239Z,28.90
2018-05-24T11:22:11.756Z,28.90
2018-05-24T11:24:40.032Z,29.50
2018-05-24T11:27:08.272Z,29.90
2018-05-24T11:29:35.788Z,29.80
2018-05-24T11:32:04.077Z,30.10
2018-05-24T11:34:32.401Z,30.30
2018-05-24T11:36:59.895Z,30.30
2018-05-24T11:39:27.459Z,30.60
2018-05-24T11:41:55.069Z,30.90
2018-05-24T11:44:22.545Z,30.90
2018-05-24T11:46:50.960Z,30.70
2018-05-24T11:49:18.474Z,30.70
2018-05-24T11:51:46.062Z,30.80
2018-05-24T11:54:13.665Z,31.20
2018-05-24T11:56:42.042Z,31.80
2018-05-24T11:59:10.307Z,31.80
2018-05-24T12:01:37.823Z,31.80
2018-05-24T12:04:05.312Z,31.80
2018-05-24T12:06:32.908Z,32.10
2018-05-24T12:09:00.508Z,32.30
2018-05-24T12:11:28.060Z,32.60
2018-05-24T12:13:56.610Z,32.70
2018-05-24T12:16:24.346Z,32.60
2018-05-24T12:18:52.700Z,32.50
2018-05-24T12:21:20.208Z,32.50
2018-05-24T12:23:47.823Z,32.70
2018-05-24T12:26:15.344Z,32.80
2018-05-24T12:28:43.161Z,32.80
2018-05-24T12:31:10.692Z,33.00
2018-05-24T12:33:38.189Z,33.10
2018-05-24T12:36:06.438Z,33.10
2018-05-24T12:38:34.016Z,33.10
2018-05-24T12:41:02.312Z,33.00
2018-05-24T12:43:29.830Z,33.00
2018-05-24T12:45:57.678Z,32.70
2018-05-24T12:48:26.142Z,32.50
2018-05-24T12:50:53.652Z,32.60
2018-05-24T12:53:22.033Z,32.40
2018-05-24T12:55:50.447Z,32.40
2018-05-24T12:58:18.014Z,32.40
2018-05-24T13:00:45.586Z,32.60
2018-05-24T13:03:13.250Z,32.70
2018-05-24T13:05:41.740Z,32.70
2018-05-24T13:08:10.248Z,32.50
2018-05-24T13:10:37.887Z,32.50
2018-05-24T13:13:05.404Z,32.10
2018-05-24T13:15:33.003Z,32.10
2018-05-24T13:18:00.738Z,32.10
2018-05-24T13:20:28.292Z,32.10
2018-05-24T13:22:56.540Z,31.80
2018-05-24T13:25:24.144Z,31.80
2018-05-24T13:27:52.415Z,32.10
2018-05-24T13:30:19.901Z,32.10
2018-05-24T13:32:48.313Z,32.30
2018-05-24T13:35:15.871Z,32.20
2018-05-24T13:37:44.247Z,32.20
2018-05-24T13:40:12.072Z,32.20
2018-05-24T13:42:39.578Z,32.10
2018-05-24T13:45:07.178Z,32.00
2018-05-24T13:47:35.474Z,32.20
2018-05-24T13:50:03.786Z,32.10
2018-05-24T13:52:31.358Z,32.10
2018-05-24T13:54:58.910Z,32.10
2018-05-24T13:57:44.900Z,32.10
2018-05-24T14:00:13.209Z,32.10
2018-05-24T14:02:40.746Z,32.10
2018-05-24T14:05:08.362Z,32.10
2018-05-24T14:07:35.893Z,31.80
2018-05-24T14:10:03.416Z,31.70
2018-05-24T14:12:30.902Z,31.50
2018-05-24T14:14:58.419Z,31.50
2018-05-24T14:17:26.759Z,31.60
2018-05-24T14:19:55.111Z,31.70
2018-05-24T14:22:23.493Z,31.90
2018-05-24T14:24:51.808Z,31.90
2018-05-24T14:27:19.452Z,31.80
2018-05-24T14:29:47.833Z,31.80
2018-05-24T14:32:15.415Z,31.80
2018-05-24T14:34:43.699Z,31.80
2018-05-24T14:37:12.591Z,31.60
2018-05-24T14:39:40.226Z,31.60
2018-05-24T14:42:07.702Z,31.40
2018-05-24T14:44:35.344Z,31.20
2018-05-24T14:47:02.916Z,31.10
2018-05-24T14:49:30.463Z,31.00
2018-05-24T14:51:58.762Z,31.20
2018-05-24T14:54:26.287Z,31.20
2018-05-24T14:56:53.801Z,31.20
2018-05-24T14:59:22.102Z,31.00
2018-05-24T15:01:49.661Z,31.00
2018-05-24T15:04:17.942Z,31.00
2018-05-24T15:06:46.218Z,31.00
2018-05-24T15:09:13.827Z,31.00
2018-05-24T15:11:41.320Z,31.00
2018-05-24T15:14:09.539Z,31.00
2018-05-24T15:16:37.103Z,30.90
2018-05-24T15:19:04.597Z,30.80
2018-05-24T15:21:32.179Z,30.70
2018-05-24T15:24:00.438Z,30.60
2018-05-24T15:26:28.061Z,30.50
2018-05-24T15:28:55.629Z,30.50
2018-05-24T15:31:23.126Z,30.60
2018-05-24T15:33:50.668Z,30.60
2018-05-24T15:36:18.146Z,30.40
2018-05-24T15:38:45.639Z,30.40
2018-05-24T15:41:13.264Z,30.30
2018-05-24T15:43:41.640Z,30.30
2018-05-24T15:46:09.097Z,30.20
2018-05-24T15:48:36.699Z,30.20
2018-05-24T15:51:05.003Z,30.10
2018-05-24T15:53:32.569Z,30.10
2018-05-24T15:56:00.856Z,29.90
2018-05-24T15:58:28.432Z,29.90
2018-05-24T16:00:55.935Z,29.90
2018-05-24T16:03:23.480Z,29.80
2018-05-24T16:05:51.098Z,29.70
2018-05-24T16:08:18.781Z,29.60
2018-05-24T16:10:46.303Z,29.50
2018-05-24T16:13:13.919Z,29.30
2018-05-24T16:15:41.413Z,29.30
2018-05-24T16:18:09.741Z,29.00
2018-05-24T16:20:37.480Z,29.00
2018-05-24T16:23:04.994Z,28.80
2018-05-24T16:25:32.723Z,28.70
2018-05-24T16:28:00.226Z,28.50
2018-05-24T16:30:27.811Z,28.50
2018-05-24T16:32:55.275Z,28.30
2018-05-24T16:35:22.929Z,28.30
2018-05-24T16:37:50.403Z,28.30
2018-05-24T16:40:17.971Z,28.20
2018-05-24T16:42:46.362Z,28.10
2018-05-24T16:45:14.009Z,28.00
2018-05-24T16:47:41.604Z,28.10
2018-05-24T16:50:10.742Z,28.00
2018-05-24T16:52:38.292Z,28.00
2018-05-24T16:55:05.787Z,27.90
2018-05-24T16:57:33.330Z,27.70
2018-05-24T17:00:00.819Z,27.60
2018-05-24T17:02:28.586Z,27.50
2018-05-24T17:04:56.117Z,27.50
2018-05-24T17:07:24.388Z,27.30
2018-05-24T17:09:51.999Z,27.20
2018-05-24T17:12:19.512Z,27.20
2018-05-24T17:14:47.032Z,27.10
2018-05-24T17:17:15.318Z,26.70
2018-05-24T17:19:43.178Z,26.70
2018-05-24T17:22:11.638Z,26.60
2018-05-24T17:24:39.147Z,26.60
2018-05-24T17:27:06.764Z,26.50
2018-05-24T17:29:34.321Z,26.50
2018-05-24T17:32:01.897Z,26.50
2018-05-24T17:34:29.434Z,26.50
2018-05-24T17:36:58.482Z,26.40
2018-05-24T17:39:26.089Z,26.40
2018-05-24T17:41:53.765Z,26.40
2018-05-24T17:44:21.396Z,26.40
2018-05-24T17:46:49.555Z,26.30
2018-05-24T17:49:17.972Z,26.20
2018-05-24T17:51:45.476Z,26.20
2018-05-24T17:54:13.106Z,26.10
2018-05-24T17:56:41.504Z,26.10
2018-05-24T17:59:09.033Z,26.10
2018-05-24T18:01:36.529Z,26.10
2018-05-24T18:04:04.837Z,26.00
2018-05-24T18:06:32.365Z,26.00
2018-05-24T18:09:00.682Z,26.00
2018-05-24T18:11:28.248Z,26.00
2018-05-24T18:13:56.555Z,25.90
2018-05-24T18:16:24.028Z,25.80
2018-05-24T18:18:51.592Z,25.80
2018-05-24T18:21:19.137Z,25.70
2018-05-24T18:23:46.665Z,25.60
2018-05-24T18:26:14.192Z,25.60
2018-05-24T18:28:41.699Z,25.50
2018-05-24T18:31:09.221Z,25.40
2018-05-24T18:33:37.489Z,25.30
2018-05-24T18:36:05.067Z,25.30
2018-05-24T18:38:34.116Z,25.20
2018-05-24T18:41:01.667Z,25.20
2018-05-24T18:43:29.960Z,25.10
2018-05-24T18:45:58.251Z,25.00
2018-05-24T18:48:26.546Z,25.00
2018-05-24T18:50:55.109Z,24.90
2018-05-24T18:53:22.604Z,24.90
2018-05-24T18:55:50.885Z,24.90
2018-05-24T18:58:19.190Z,24.80
2018-05-24T19:00:46.749Z,24.80
2018-05-24T19:03:15.165Z,24.80
2018-05-24T19:05:42.728Z,24.70
2018-05-24T19:08:10.302Z,24.80
2018-05-24T19:10:38.570Z,25.10
2018-05-24T19:13:06.900Z,25.10
2018-05-24T19:15:34.440Z,25.10
2018-05-24T19:18:02.721Z,25.20
2018-05-24T19:20:31.023Z,25.20
2018-05-24T19:22:58.611Z,25.20
2018-05-24T19:25:26.141Z,25.20
2018-05-24T19:27:55.175Z,25.20
2018-05-24T19:30:22.772Z,25.20
2018-05-24T19:32:50.430Z,25.20
2018-05-24T19:35:18.037Z,25.20
2018-05-24T19:37:46.203Z,25.10
2018-05-24T19:40:13.757Z,25.10
2018-05-24T19:42:41.527Z,25.10
2018-05-24T19:45:09.129Z,25.10
2018-05-24T19:47:36.700Z,25.10
2018-05-24T19:50:04.345Z,25.10
2018-05-24T19:52:31.909Z,25.00
2018-05-24T19:54:59.472Z,25.00
2018-05-24T19:57:27.909Z,25.00
2018-05-24T19:59:55.433Z,24.90
2018-05-24T20:02:23.837Z,24.90
2018-05-24T20:04:52.131Z,24.90
2018-05-24T20:07:19.668Z,24.90
2018-05-24T20:09:47.248Z,24.90
2018-05-24T20:12:16.591Z,24.80
2018-05-24T20:14:44.269Z,24.80
2018-05-24T20:17:12.850Z,24.70
2018-05-24T20:19:40.544Z,24.70
2018-05-24T20:22:08.046Z,24.70
2018-05-24T20:24:35.674Z,24.60
2018-05-24T20:27:03.256Z,24.60
2018-05-24T20:29:30.789Z,24.60
2018-05-24T20:31:59.178Z,24.50
2018-05-24T20:34:26.775Z,24.50
2018-05-24T20:36:54.280Z,24.50
2018-05-24T20:39:21.796Z,24.40
2018-05-24T20:41:50.706Z,24.40
2018-05-24T20:44:18.977Z,24.40
2018-05-24T20:46:46.500Z,24.30
2018-05-24T20:49:14.113Z,24.30
2018-05-24T20:51:41.690Z,24.30
2018-05-24T20:54:10.014Z,24.20
2018-05-24T20:56:37.931Z,24.00
2018-05-24T20:59:05.438Z,23.80
2018-05-24T21:01:33.728Z,23.50
2018-05-24T21:04:02.136Z,23.40
2018-05-24T21:06:30.404Z,23.30
2018-05-24T21:08:57.933Z,23.30
2018-05-24T21:11:25.623Z,23.30
2018-05-24T21:13:53.188Z,23.20
2018-05-24T21:16:20.865Z,23.10
2018-05-24T21:18:48.430Z,23.00
2018-05-24T21:21:15.959Z,22.90
2018-05-24T21:23:44.217Z,22.80
2018-05-24T21:26:11.742Z,22.80
2018-05-24T21:28:39.313Z,22.70
2018-05-24T21:31:06.845Z,22.60
2018-05-24T21:33:35.149Z,22.50
2018-05-24T21:36:03.448Z,22.40
2018-05-24T21:38:30.983Z,22.40
2018-05-24T21:40:58.508Z,22.30
2018-05-24T21:43:26.071Z,22.30
2018-05-24T21:45:53.630Z,22.30
2018-05-24T21:48:22.007Z,22.20
2018-05-24T21:50:50.311Z,22.10
2018-05-24T21:53:17.868Z,22.10
2018-05-24T21:55:46.159Z,22.00
2018-05-24T21:58:14.462Z,22.00
2018-05-24T22:00:47.687Z,22.00
2018-05-24T22:03:15.196Z,21.90
2018-05-24T22:05:42.792Z,21.90
2018-05-24T22:08:11.298Z,21.80
2018-05-24T22:10:38.874Z,21.80
2018-05-24T22:13:06.422Z,21.70
2018-05-24T22:15:34.806Z,21.70
2018-05-24T22:18:03.089Z,21.70
2018-05-24T22:20:30.633Z,21.60
2018-05-24T22:22:58.144Z,21.60
2018-05-24T22:25:26.515Z,21.60
2018-05-24T22:27:54.098Z,21.60
2018-05-24T22:30:22.516Z,21.50
2018-05-24T22:32:50.012Z,21.50
2018-05-24T22:35:17.583Z,21.40
2018-05-24T22:37:45.201Z,21.40
2018-05-24T22:40:12.778Z,21.30
2018-05-24T22:42:41.174Z,21.30
2018-05-24T22:45:09.437Z,21.20
2018-05-24T22:47:37.021Z,21.20
2018-05-24T22:50:04.495Z,21.20
2018-05-24T22:52:32.801Z,21.10
2018-05-24T22:55:00.333Z,21.10
2018-05-24T22:57:27.934Z,21.10
2018-05-24T22:59:56.222Z,21.00
2018-05-24T23:02:24.477Z,21.00
2018-05-24T23:04:52.088Z,21.00
2018-05-24T23:07:20.501Z,21.00
2018-05-24T23:09:48.060Z,20.90
2018-05-24T23:12:16.328Z,20.90
2018-05-24T23:14:44.641Z,20.80
2018-05-24T23:17:12.275Z,20.80
2018-05-24T23:19:39.867Z,20.80
2018-05-24T23:22:07.425Z,20.80
2018-05-24T23:24:34.985Z,20.80
2018-05-24T23:27:02.687Z,20.70
2018-05-24T23:29:30.935Z,20.70
2018-05-24T23:31:58.436Z,20.70
2018-05-24T23:34:26.708Z,20.60
2018-05-24T23:36:54.269Z,20.60
2018-05-24T23:39:21.911Z,20.60
2018-05-24T23:41:49.563Z,20.50
2018-05-24T23:44:17.849Z,20.50
2018-05-24T23:46:45.495Z,20.40
2018-05-24T23:49:13.016Z,20.40
2018-05-24T23:51:40.712Z,20.40
2018-05-24T23:54:08.194Z,20.40
2018-05-24T23:56:35.804Z,20.40
2018-05-24T23:59:04.081Z,20.30
